sensor_id;sensor_type;location;lat;lon;timestamp;temperature;humidity
37310;DHT22;23195;47.744;7.358;2022-09-16T00:00:40;16.50;99.90
37310;DHT22;23195;47.744;7.358;2022-09-16T00:03:08;16.50;99.90
37310;DHT22;23195;47.744;7.358;2022-09-16T00:05:38;16.50;99.90
37310;DHT22;23195;47.744;7.358;2022-09-16T00:08:07;16.00;99.90
37310;DHT22;23195;47.744;7.358;2022-09-16T00:10:33;16.40;99.90
37310;DHT22;23195;47.744;7.358;2022-09-16T00:13:00;16.40;99.90
37310;DHT22;23195;47.744;7.358;2022-09-16T00:15:26;16.50;99.90
37310;DHT22;23195;47.744;7.358;2022-09-16T00:17:52;16.50;99.90
37310;DHT22;23195;47.744;7.358;2022-09-16T00:20:18;16.50;99.90
37310;DHT22;23195;47.744;7.358;2022-09-16T00:22:46;16.50;99.90
37310;DHT22;23195;47.744;7.358;2022-09-16T00:25:12;16.50;99.90
37310;DHT22;23195;47.744;7.358;2022-09-16T00:27:38;16.60;99.90
37310;DHT22;23195;47.744;7.358;2022-09-16T00:30:04;16.50;99.90
37310;DHT22;23195;47.744;7.358;2022-09-16T00:32:33;16.50;99.90
37310;DHT22;23195;47.744;7.358;2022-09-16T00:35:08;16.50;99.90
37310;DHT22;23195;47.744;7.358;2022-09-16T00:37:37;16.10;99.90
37310;DHT22;23195;47.744;7.358;2022-09-16T00:40:11;16.60;99.90
37310;DHT22;23195;47.744;7.358;2022-09-16T00:42:41;16.50;99.90
37310;DHT22;23195;47.744;7.358;2022-09-16T00:45:21;16.60;99.90
37310;DHT22;23195;47.744;7.358;2022-09-16T00:47:53;16.50;99.90
37310;DHT22;23195;47.744;7.358;2022-09-16T00:53:01;16.50;99.90
37310;DHT22;23195;47.744;7.358;2022-09-16T00:55:33;16.40;99.90
37310;DHT22;23195;47.744;7.358;2022-09-16T01:01:03;16.50;99.90
37310;DHT22;23195;47.744;7.358;2022-09-16T01:03:33;16.40;99.90
37310;DHT22;23195;47.744;7.358;2022-09-16T01:06:01;16.50;99.90
37310;DHT22;23195;47.744;7.358;2022-09-16T01:08:27;16.40;99.90
37310;DHT22;23195;47.744;7.358;2022-09-16T01:10:53;16.30;99.90
37310;DHT22;23195;47.744;7.358;2022-09-16T01:13:21;16.30;99.90
37310;DHT22;23195;47.744;7.358;2022-09-16T01:18:19;16.30;99.90
37310;DHT22;23195;47.744;7.358;2022-09-16T01:24:01;16.20;99.90
37310;DHT22;23195;47.744;7.358;2022-09-16T01:32:32;16.20;99.90
37310;DHT22;23195;47.744;7.358;2022-09-16T01:35:13;16.20;99.90
37310;DHT22;23195;47.744;7.358;2022-09-16T01:49:11;16.20;99.90
37310;DHT22;23195;47.744;7.358;2022-09-16T01:57:17;16.20;99.90
37310;DHT22;23195;47.744;7.358;2022-09-16T02:00:04;16.30;99.90
37310;DHT22;23195;47.744;7.358;2022-09-16T02:02:40;16.20;99.90
37310;DHT22;23195;47.744;7.358;2022-09-16T02:05:17;16.20;99.90
37310;DHT22;23195;47.744;7.358;2022-09-16T02:07:52;16.20;99.90
37310;DHT22;23195;47.744;7.358;2022-09-16T02:10:29;16.20;99.90
37310;DHT22;23195;47.744;7.358;2022-09-16T02:13:03;16.20;99.90
37310;DHT22;23195;47.744;7.358;2022-09-16T02:15:32;16.20;99.90
37310;DHT22;23195;47.744;7.358;2022-09-16T02:18:09;16.20;99.90
37310;DHT22;23195;47.744;7.358;2022-09-16T02:20:40;16.20;99.90
37310;DHT22;23195;47.744;7.358;2022-09-16T02:23:15;16.20;99.90
37310;DHT22;23195;47.744;7.358;2022-09-16T02:25:47;16.10;99.90
37310;DHT22;23195;47.744;7.358;2022-09-16T02:28:18;16.10;99.90
37310;DHT22;23195;47.744;7.358;2022-09-16T02:30:48;16.20;99.90
37310;DHT22;23195;47.744;7.358;2022-09-16T02:33:16;16.20;99.90
37310;DHT22;23195;47.744;7.358;2022-09-16T02:35:44;16.10;99.90
37310;DHT22;23195;47.744;7.358;2022-09-16T02:38:29;16.10;99.90
37310;DHT22;23195;47.744;7.358;2022-09-16T02:41:02;16.00;99.90
37310;DHT22;23195;47.744;7.358;2022-09-16T02:43:29;15.70;99.90
37310;DHT22;23195;47.744;7.358;2022-09-16T02:54:24;15.90;99.90
37310;DHT22;23195;47.744;7.358;2022-09-16T02:56:56;15.90;99.90
37310;DHT22;23195;47.744;7.358;2022-09-16T02:59:22;15.80;99.90
37310;DHT22;23195;47.744;7.358;2022-09-16T03:01:49;15.80;99.90
37310;DHT22;23195;47.744;7.358;2022-09-16T03:04:18;15.70;99.90
37310;DHT22;23195;47.744;7.358;2022-09-16T03:06:45;15.70;99.90
37310;DHT22;23195;47.744;7.358;2022-09-16T03:09:12;15.60;99.90
37310;DHT22;23195;47.744;7.358;2022-09-16T03:17:20;15.40;99.90
37310;DHT22;23195;47.744;7.358;2022-09-16T03:20:15;15.50;99.90
37310;DHT22;23195;47.744;7.358;2022-09-16T03:31:43;15.50;99.90
37310;DHT22;23195;47.744;7.358;2022-09-16T03:36:46;15.40;99.90
37310;DHT22;23195;47.744;7.358;2022-09-16T03:39:15;15.40;99.90
37310;DHT22;23195;47.744;7.358;2022-09-16T03:41:41;15.30;99.90
37310;DHT22;23195;47.744;7.358;2022-09-16T03:44:08;15.30;99.90
37310;DHT22;23195;47.744;7.358;2022-09-16T03:46:34;15.30;99.90
37310;DHT22;23195;47.744;7.358;2022-09-16T03:49:00;15.20;99.90
37310;DHT22;23195;47.744;7.358;2022-09-16T03:51:26;15.20;99.90
37310;DHT22;23195;47.744;7.358;2022-09-16T03:53:52;15.30;99.90
37310;DHT22;23195;47.744;7.358;2022-09-16T03:56:23;15.00;99.90
37310;DHT22;23195;47.744;7.358;2022-09-16T03:58:49;15.30;99.90
37310;DHT22;23195;47.744;7.358;2022-09-16T04:01:15;15.30;99.90
37310;DHT22;23195;47.744;7.358;2022-09-16T04:03:41;15.30;99.90
37310;DHT22;23195;47.744;7.358;2022-09-16T04:06:07;15.30;99.90
37310;DHT22;23195;47.744;7.358;2022-09-16T04:08:34;15.30;99.90
37310;DHT22;23195;47.744;7.358;2022-09-16T04:11:04;15.30;99.90
37310;DHT22;23195;47.744;7.358;2022-09-16T04:13:31;14.90;99.90
37310;DHT22;23195;47.744;7.358;2022-09-16T04:15:58;15.30;99.90
37310;DHT22;23195;47.744;7.358;2022-09-16T04:18:24;15.40;99.90
37310;DHT22;23195;47.744;7.358;2022-09-16T04:20:54;15.30;99.90
37310;DHT22;23195;47.744;7.358;2022-09-16T04:23:24;15.40;99.90
37310;DHT22;23195;47.744;7.358;2022-09-16T04:25:58;15.30;99.90
37310;DHT22;23195;47.744;7.358;2022-09-16T04:28:24;15.30;99.90
37310;DHT22;23195;47.744;7.358;2022-09-16T04:30:53;15.30;99.90
37310;DHT22;23195;47.744;7.358;2022-09-16T04:33:19;15.30;99.90
37310;DHT22;23195;47.744;7.358;2022-09-16T04:35:45;15.30;99.90
37310;DHT22;23195;47.744;7.358;2022-09-16T04:38:11;15.30;99.90
37310;DHT22;23195;47.744;7.358;2022-09-16T04:40:36;15.20;99.90
37310;DHT22;23195;47.744;7.358;2022-09-16T04:43:04;15.20;99.90
37310;DHT22;23195;47.744;7.358;2022-09-16T04:45:32;15.30;99.90
37310;DHT22;23195;47.744;7.358;2022-09-16T04:47:58;15.20;99.90
37310;DHT22;23195;47.744;7.358;2022-09-16T04:50:27;15.20;99.90
37310;DHT22;23195;47.744;7.358;2022-09-16T04:52:53;15.20;99.90
37310;DHT22;23195;47.744;7.358;2022-09-16T04:55:19;15.20;99.90
37310;DHT22;23195;47.744;7.358;2022-09-16T04:57:48;15.30;99.90
37310;DHT22;23195;47.744;7.358;2022-09-16T05:00:21;15.20;99.90
37310;DHT22;23195;47.744;7.358;2022-09-16T05:02:47;15.30;99.90
37310;DHT22;23195;47.744;7.358;2022-09-16T05:05:14;15.20;99.90
37310;DHT22;23195;47.744;7.358;2022-09-16T05:07:41;14.60;99.90
37310;DHT22;23195;47.744;7.358;2022-09-16T05:10:07;15.20;99.90
37310;DHT22;23195;47.744;7.358;2022-09-16T05:12:33;15.30;99.90
37310;DHT22;23195;47.744;7.358;2022-09-16T05:15:03;15.20;99.90
37310;DHT22;23195;47.744;7.358;2022-09-16T05:17:29;15.20;99.90
37310;DHT22;23195;47.744;7.358;2022-09-16T05:19:56;15.20;99.90
37310;DHT22;23195;47.744;7.358;2022-09-16T05:22:23;15.30;99.90
37310;DHT22;23195;47.744;7.358;2022-09-16T05:24:48;15.20;99.90
37310;DHT22;23195;47.744;7.358;2022-09-16T05:27:17;15.20;99.90
37310;DHT22;23195;47.744;7.358;2022-09-16T05:29:43;15.20;99.90
37310;DHT22;23195;47.744;7.358;2022-09-16T05:32:08;15.20;99.90
37310;DHT22;23195;47.744;7.358;2022-09-16T05:34:34;15.20;99.90
37310;DHT22;23195;47.744;7.358;2022-09-16T05:37:04;14.40;99.90
37310;DHT22;23195;47.744;7.358;2022-09-16T05:39:32;15.20;99.90
37310;DHT22;23195;47.744;7.358;2022-09-16T05:42:08;15.20;99.90
37310;DHT22;23195;47.744;7.358;2022-09-16T05:44:34;15.20;99.90
37310;DHT22;23195;47.744;7.358;2022-09-16T05:47:01;15.30;99.90
37310;DHT22;23195;47.744;7.358;2022-09-16T05:49:27;15.20;99.90
37310;DHT22;23195;47.744;7.358;2022-09-16T05:51:53;15.30;99.90
37310;DHT22;23195;47.744;7.358;2022-09-16T05:54:20;15.30;99.90
37310;DHT22;23195;47.744;7.358;2022-09-16T05:56:48;14.70;99.90
37310;DHT22;23195;47.744;7.358;2022-09-16T05:59:15;15.30;99.90
37310;DHT22;23195;47.744;7.358;2022-09-16T06:01:42;15.40;99.90
37310;DHT22;23195;47.744;7.358;2022-09-16T06:04:12;15.40;99.90
37310;DHT22;23195;47.744;7.358;2022-09-16T06:06:43;15.40;99.90
37310;DHT22;23195;47.744;7.358;2022-09-16T06:11:42;15.50;99.90
37310;DHT22;23195;47.744;7.358;2022-09-16T06:14:08;15.50;99.90
37310;DHT22;23195;47.744;7.358;2022-09-16T06:16:34;15.50;99.90
37310;DHT22;23195;47.744;7.358;2022-09-16T06:19:02;15.50;99.90
37310;DHT22;23195;47.744;7.358;2022-09-16T06:21:29;15.50;99.90
37310;DHT22;23195;47.744;7.358;2022-09-16T06:23:55;15.50;99.90
37310;DHT22;23195;47.744;7.358;2022-09-16T06:26:23;15.50;99.90
37310;DHT22;23195;47.744;7.358;2022-09-16T06:28:50;15.40;99.90
37310;DHT22;23195;47.744;7.358;2022-09-16T06:31:18;15.50;99.90
37310;DHT22;23195;47.744;7.358;2022-09-16T06:33:44;15.50;99.90
37310;DHT22;23195;47.744;7.358;2022-09-16T06:36:15;15.60;99.90
37310;DHT22;23195;47.744;7.358;2022-09-16T06:38:42;15.70;99.90
37310;DHT22;23195;47.744;7.358;2022-09-16T06:41:09;15.60;99.90
37310;DHT22;23195;47.744;7.358;2022-09-16T06:43:36;15.70;99.90
37310;DHT22;23195;47.744;7.358;2022-09-16T06:46:09;15.80;99.90
37310;DHT22;23195;47.744;7.358;2022-09-16T06:48:39;15.80;99.90
37310;DHT22;23195;47.744;7.358;2022-09-16T06:51:26;16.00;99.90
37310;DHT22;23195;47.744;7.358;2022-09-16T06:53:54;16.10;99.90
37310;DHT22;23195;47.744;7.358;2022-09-16T06:56:23;16.10;99.90
37310;DHT22;23195;47.744;7.358;2022-09-16T06:58:50;16.20;99.90
37310;DHT22;23195;47.744;7.358;2022-09-16T07:01:30;16.20;99.90
37310;DHT22;23195;47.744;7.358;2022-09-16T07:03:57;16.30;99.90
37310;DHT22;23195;47.744;7.358;2022-09-16T07:06:24;16.40;99.90
37310;DHT22;23195;47.744;7.358;2022-09-16T07:08:53;16.50;99.90
37310;DHT22;23195;47.744;7.358;2022-09-16T07:11:20;16.60;99.90
37310;DHT22;23195;47.744;7.358;2022-09-16T07:13:49;16.80;99.90
37310;DHT22;23195;47.744;7.358;2022-09-16T07:16:18;16.80;99.90
37310;DHT22;23195;47.744;7.358;2022-09-16T07:18:45;16.40;99.90
37310;DHT22;23195;47.744;7.358;2022-09-16T07:21:21;16.40;99.90
37310;DHT22;23195;47.744;7.358;2022-09-16T07:23:54;16.80;99.90
37310;DHT22;23195;47.744;7.358;2022-09-16T07:26:23;16.70;99.90
37310;DHT22;23195;47.744;7.358;2022-09-16T07:28:51;16.80;99.90
37310;DHT22;23195;47.744;7.358;2022-09-16T07:31:22;16.70;99.90
37310;DHT22;23195;47.744;7.358;2022-09-16T07:33:57;16.70;99.90
37310;DHT22;23195;47.744;7.358;2022-09-16T07:36:25;16.70;99.90
37310;DHT22;23195;47.744;7.358;2022-09-16T07:38:54;16.80;99.90
37310;DHT22;23195;47.744;7.358;2022-09-16T07:41:24;16.90;99.90
37310;DHT22;23195;47.744;7.358;2022-09-16T07:43:56;16.90;99.90
37310;DHT22;23195;47.744;7.358;2022-09-16T07:46:27;17.10;99.90
37310;DHT22;23195;47.744;7.358;2022-09-16T07:48:53;17.20;99.90
37310;DHT22;23195;47.744;7.358;2022-09-16T07:51:22;17.30;99.90
37310;DHT22;23195;47.744;7.358;2022-09-16T07:53:53;17.60;99.90
37310;DHT22;23195;47.744;7.358;2022-09-16T07:56:20;17.70;99.90
37310;DHT22;23195;47.744;7.358;2022-09-16T07:58:47;18.30;99.90
37310;DHT22;23195;47.744;7.358;2022-09-16T08:01:15;18.80;99.90
37310;DHT22;23195;47.744;7.358;2022-09-16T08:03:42;19.40;99.90
37310;DHT22;23195;47.744;7.358;2022-09-16T08:06:12;19.90;99.90
37310;DHT22;23195;47.744;7.358;2022-09-16T08:08:39;20.20;99.90
37310;DHT22;23195;47.744;7.358;2022-09-16T08:11:06;20.80;99.90
37310;DHT22;23195;47.744;7.358;2022-09-16T08:13:34;21.60;99.90
37310;DHT22;23195;47.744;7.358;2022-09-16T08:16:02;22.10;99.90
37310;DHT22;23195;47.744;7.358;2022-09-16T08:18:29;22.40;99.90
37310;DHT22;23195;47.744;7.358;2022-09-16T08:20:55;22.40;99.90
37310;DHT22;23195;47.744;7.358;2022-09-16T08:23:21;22.20;99.90
37310;DHT22;23195;47.744;7.358;2022-09-16T08:25:55;22.00;99.90
37310;DHT22;23195;47.744;7.358;2022-09-16T08:28:22;22.40;99.90
37310;DHT22;23195;47.744;7.358;2022-09-16T08:30:51;22.90;99.90
37310;DHT22;23195;47.744;7.358;2022-09-16T08:33:17;23.00;99.90
37310;DHT22;23195;47.744;7.358;2022-09-16T08:36:10;22.90;99.90
37310;DHT22;23195;47.744;7.358;2022-09-16T08:38:37;22.20;99.90
37310;DHT22;23195;47.744;7.358;2022-09-16T08:42:04;21.80;99.90
37310;DHT22;23195;47.744;7.358;2022-09-16T08:47:04;21.10;99.90
37310;DHT22;23195;47.744;7.358;2022-09-16T08:49:45;20.90;99.90
37310;DHT22;23195;47.744;7.358;2022-09-16T08:52:30;20.50;99.90
37310;DHT22;23195;47.744;7.358;2022-09-16T08:55:18;20.70;99.90
37310;DHT22;23195;47.744;7.358;2022-09-16T08:57:55;20.90;99.90
37310;DHT22;23195;47.744;7.358;2022-09-16T09:00:22;21.00;99.90
37310;DHT22;23195;47.744;7.358;2022-09-16T09:02:55;21.00;99.90
37310;DHT22;23195;47.744;7.358;2022-09-16T09:10:55;20.40;99.90
37310;DHT22;23195;47.744;7.358;2022-09-16T09:14:00;20.40;99.90
37310;DHT22;23195;47.744;7.358;2022-09-16T09:19:28;19.90;99.90
37310;DHT22;23195;47.744;7.358;2022-09-16T09:27:30;19.30;99.90
37310;DHT22;23195;47.744;7.358;2022-09-16T09:30:13;19.00;99.90
37310;DHT22;23195;47.744;7.358;2022-09-16T09:33:17;18.70;99.90
37310;DHT22;23195;47.744;7.358;2022-09-16T09:36:07;18.30;99.90
37310;DHT22;23195;47.744;7.358;2022-09-16T09:47:01;17.50;99.90
37310;DHT22;23195;47.744;7.358;2022-09-16T09:49:32;17.50;99.90
37310;DHT22;23195;47.744;7.358;2022-09-16T09:52:04;17.30;99.90
37310;DHT22;23195;47.744;7.358;2022-09-16T09:54:37;17.60;99.90
37310;DHT22;23195;47.744;7.358;2022-09-16T09:57:18;17.60;99.90
37310;DHT22;23195;47.744;7.358;2022-09-16T10:02:21;18.10;99.90
37310;DHT22;23195;47.744;7.358;2022-09-16T10:04:48;18.20;99.90
37310;DHT22;23195;47.744;7.358;2022-09-16T10:07:17;18.30;99.90
37310;DHT22;23195;47.744;7.358;2022-09-16T10:10:14;18.40;99.90
37310;DHT22;23195;47.744;7.358;2022-09-16T10:12:40;18.60;99.90
37310;DHT22;23195;47.744;7.358;2022-09-16T10:15:16;18.60;99.90
37310;DHT22;23195;47.744;7.358;2022-09-16T10:17:48;18.70;99.90
37310;DHT22;23195;47.744;7.358;2022-09-16T10:20:29;18.80;99.90
37310;DHT22;23195;47.744;7.358;2022-09-16T10:23:03;18.80;99.90
37310;DHT22;23195;47.744;7.358;2022-09-16T10:25:30;19.00;99.90
37310;DHT22;23195;47.744;7.358;2022-09-16T10:28:05;18.90;99.90
37310;DHT22;23195;47.744;7.358;2022-09-16T10:30:42;18.60;99.90
37310;DHT22;23195;47.744;7.358;2022-09-16T10:36:08;18.40;99.90
37310;DHT22;23195;47.744;7.358;2022-09-16T10:38:47;18.40;99.90
37310;DHT22;23195;47.744;7.358;2022-09-16T10:41:25;18.30;99.90
37310;DHT22;23195;47.744;7.358;2022-09-16T10:43:54;18.20;99.90
37310;DHT22;23195;47.744;7.358;2022-09-16T10:46:21;18.10;99.90
37310;DHT22;23195;47.744;7.358;2022-09-16T10:48:49;18.00;99.90
37310;DHT22;23195;47.744;7.358;2022-09-16T10:51:28;18.00;99.90
37310;DHT22;23195;47.744;7.358;2022-09-16T10:54:00;17.90;99.90
37310;DHT22;23195;47.744;7.358;2022-09-16T10:56:31;17.70;99.90
37310;DHT22;23195;47.744;7.358;2022-09-16T11:07:40;17.60;99.90
37310;DHT22;23195;47.744;7.358;2022-09-16T11:10:41;17.50;99.90
37310;DHT22;23195;47.744;7.358;2022-09-16T11:18:35;17.40;99.90
37310;DHT22;23195;47.744;7.358;2022-09-16T11:21:17;17.30;99.90
37310;DHT22;23195;47.744;7.358;2022-09-16T11:23:56;17.20;99.90
37310;DHT22;23195;47.744;7.358;2022-09-16T11:38:12;17.40;99.90
37310;DHT22;23195;47.744;7.358;2022-09-16T11:54:14;16.20;99.90
37310;DHT22;23195;47.744;7.358;2022-09-16T11:56:47;15.40;99.90
37310;DHT22;23195;47.744;7.358;2022-09-16T11:59:25;14.70;99.90
37310;DHT22;23195;47.744;7.358;2022-09-16T12:01:59;14.40;99.90
37310;DHT22;23195;47.744;7.358;2022-09-16T12:04:36;14.50;99.90
37310;DHT22;23195;47.744;7.358;2022-09-16T12:07:12;14.80;99.90
37310;DHT22;23195;47.744;7.358;2022-09-16T12:12:17;15.50;99.90
37310;DHT22;23195;47.744;7.358;2022-09-16T12:14:49;15.50;99.90
37310;DHT22;23195;47.744;7.358;2022-09-16T12:17:23;15.50;99.90
37310;DHT22;23195;47.744;7.358;2022-09-16T12:20:13;15.30;99.90
37310;DHT22;23195;47.744;7.358;2022-09-16T12:23:11;15.30;99.90
37310;DHT22;23195;47.744;7.358;2022-09-16T12:28:34;15.60;99.90
37310;DHT22;23195;47.744;7.358;2022-09-16T12:31:31;15.60;99.90
37310;DHT22;23195;47.744;7.358;2022-09-16T12:34:08;15.70;99.90
37310;DHT22;23195;47.744;7.358;2022-09-16T12:36:39;15.80;99.90
37310;DHT22;23195;47.744;7.358;2022-09-16T12:39:07;16.00;99.90
37310;DHT22;23195;47.744;7.358;2022-09-16T12:41:57;16.50;99.90
37310;DHT22;23195;47.744;7.358;2022-09-16T12:47:38;16.40;99.90
37310;DHT22;23195;47.744;7.358;2022-09-16T12:58:50;16.80;99.90
37310;DHT22;23195;47.744;7.358;2022-09-16T13:01:29;17.00;99.90
37310;DHT22;23195;47.744;7.358;2022-09-16T13:03:59;17.20;99.90
37310;DHT22;23195;47.744;7.358;2022-09-16T13:06:33;17.30;99.90
37310;DHT22;23195;47.744;7.358;2022-09-16T13:09:18;17.20;99.90
37310;DHT22;23195;47.744;7.358;2022-09-16T13:11:57;17.10;99.90
37310;DHT22;23195;47.744;7.358;2022-09-16T13:14:49;16.90;99.90
37310;DHT22;23195;47.744;7.358;2022-09-16T13:17:35;17.00;99.90
37310;DHT22;23195;47.744;7.358;2022-09-16T13:20:17;17.20;99.90
37310;DHT22;23195;47.744;7.358;2022-09-16T13:23:01;17.20;99.90
37310;DHT22;23195;47.744;7.358;2022-09-16T13:31:28;17.20;99.90
37310;DHT22;23195;47.744;7.358;2022-09-16T13:38:55;17.70;99.90
37310;DHT22;23195;47.744;7.358;2022-09-16T13:41:40;17.90;99.90
37310;DHT22;23195;47.744;7.358;2022-09-16T13:52:26;18.00;99.90
37310;DHT22;23195;47.744;7.358;2022-09-16T13:54:55;17.80;99.90
37310;DHT22;23195;47.744;7.358;2022-09-16T14:03:03;17.50;99.90
37310;DHT22;23195;47.744;7.358;2022-09-16T14:11:34;16.80;99.90
37310;DHT22;23195;47.744;7.358;2022-09-16T14:14:10;16.70;99.90
37310;DHT22;23195;47.744;7.358;2022-09-16T14:16:41;16.50;99.90
37310;DHT22;23195;47.744;7.358;2022-09-16T14:21:46;16.40;99.90
37310;DHT22;23195;47.744;7.358;2022-09-16T14:24:18;16.40;99.90
37310;DHT22;23195;47.744;7.358;2022-09-16T14:26:51;16.60;99.90
37310;DHT22;23195;47.744;7.358;2022-09-16T14:29:18;16.90;99.90
37310;DHT22;23195;47.744;7.358;2022-09-16T14:31:43;17.10;99.90
37310;DHT22;23195;47.744;7.358;2022-09-16T14:34:14;17.20;99.90
37310;DHT22;23195;47.744;7.358;2022-09-16T14:36:41;17.50;99.90
37310;DHT22;23195;47.744;7.358;2022-09-16T14:39:09;17.80;99.90
37310;DHT22;23195;47.744;7.358;2022-09-16T14:41:43;18.00;99.90
37310;DHT22;23195;47.744;7.358;2022-09-16T14:44:24;18.20;99.90
37310;DHT22;23195;47.744;7.358;2022-09-16T14:47:13;18.00;99.90
37310;DHT22;23195;47.744;7.358;2022-09-16T14:49:40;17.90;99.90
37310;DHT22;23195;47.744;7.358;2022-09-16T14:52:24;18.00;99.90
37310;DHT22;23195;47.744;7.358;2022-09-16T14:54:55;18.00;99.90
37310;DHT22;23195;47.744;7.358;2022-09-16T14:57:28;18.00;99.90
37310;DHT22;23195;47.744;7.358;2022-09-16T14:59:56;18.00;99.90
37310;DHT22;23195;47.744;7.358;2022-09-16T15:05:19;18.00;99.90
37310;DHT22;23195;47.744;7.358;2022-09-16T15:07:50;17.90;99.90
37310;DHT22;23195;47.744;7.358;2022-09-16T15:10:27;18.00;99.90
37310;DHT22;23195;47.744;7.358;2022-09-16T15:13:11;18.00;99.90
37310;DHT22;23195;47.744;7.358;2022-09-16T15:15:56;17.80;99.90
37310;DHT22;23195;47.744;7.358;2022-09-16T15:18:33;17.50;99.90
37310;DHT22;23195;47.744;7.358;2022-09-16T15:23:29;17.20;99.90
37310;DHT22;23195;47.744;7.358;2022-09-16T15:25:58;17.20;99.90
37310;DHT22;23195;47.744;7.358;2022-09-16T15:28:30;17.20;99.90
37310;DHT22;23195;47.744;7.358;2022-09-16T15:30:56;17.10;99.90
37310;DHT22;23195;47.744;7.358;2022-09-16T15:33:26;17.10;99.90
37310;DHT22;23195;47.744;7.358;2022-09-16T15:35:52;17.20;99.90
37310;DHT22;23195;47.744;7.358;2022-09-16T15:38:21;16.70;99.90
37310;DHT22;23195;47.744;7.358;2022-09-16T15:41:11;17.20;99.90
37310;DHT22;23195;47.744;7.358;2022-09-16T15:43:38;17.50;99.90
37310;DHT22;23195;47.744;7.358;2022-09-16T15:46:17;17.30;99.90
37310;DHT22;23195;47.744;7.358;2022-09-16T15:48:51;17.20;99.90
37310;DHT22;23195;47.744;7.358;2022-09-16T15:54:30;17.30;99.90
37310;DHT22;23195;47.744;7.358;2022-09-16T15:57:25;17.20;99.90
37310;DHT22;23195;47.744;7.358;2022-09-16T16:02:52;17.20;99.90
37310;DHT22;23195;47.744;7.358;2022-09-16T16:05:27;17.00;99.90
37310;DHT22;23195;47.744;7.358;2022-09-16T16:07:59;17.10;99.90
37310;DHT22;23195;47.744;7.358;2022-09-16T16:10:27;17.00;99.90
37310;DHT22;23195;47.744;7.358;2022-09-16T16:12:56;16.90;99.90
37310;DHT22;23195;47.744;7.358;2022-09-16T16:15:35;16.90;99.90
37310;DHT22;23195;47.744;7.358;2022-09-16T16:18:04;17.00;99.90
37310;DHT22;23195;47.744;7.358;2022-09-16T16:20:32;16.90;99.90
37310;DHT22;23195;47.744;7.358;2022-09-16T16:23:00;16.80;99.90
37310;DHT22;23195;47.744;7.358;2022-09-16T16:25:26;16.80;99.90
37310;DHT22;23195;47.744;7.358;2022-09-16T16:27:52;16.80;99.90
37310;DHT22;23195;47.744;7.358;2022-09-16T16:30:18;16.80;99.90
37310;DHT22;23195;47.744;7.358;2022-09-16T16:32:45;16.70;99.90
37310;DHT22;23195;47.744;7.358;2022-09-16T16:35:11;16.80;99.90
37310;DHT22;23195;47.744;7.358;2022-09-16T16:37:37;16.70;99.90
37310;DHT22;23195;47.744;7.358;2022-09-16T16:40:04;16.60;99.90
37310;DHT22;23195;47.744;7.358;2022-09-16T16:42:30;16.60;99.90
37310;DHT22;23195;47.744;7.358;2022-09-16T16:44:56;16.50;99.90
37310;DHT22;23195;47.744;7.358;2022-09-16T16:47:23;16.40;99.90
37310;DHT22;23195;47.744;7.358;2022-09-16T16:49:49;16.40;99.90
37310;DHT22;23195;47.744;7.358;2022-09-16T16:52:16;16.40;99.90
37310;DHT22;23195;47.744;7.358;2022-09-16T16:54:42;16.40;99.90
37310;DHT22;23195;47.744;7.358;2022-09-16T16:57:09;16.20;99.90
37310;DHT22;23195;47.744;7.358;2022-09-16T16:59:35;16.30;99.90
37310;DHT22;23195;47.744;7.358;2022-09-16T17:02:01;16.20;99.90
37310;DHT22;23195;47.744;7.358;2022-09-16T17:04:28;16.20;99.90
37310;DHT22;23195;47.744;7.358;2022-09-16T17:06:54;16.20;99.90
37310;DHT22;23195;47.744;7.358;2022-09-16T17:09:20;16.20;99.90
37310;DHT22;23195;47.744;7.358;2022-09-16T17:11:55;15.80;99.90
37310;DHT22;23195;47.744;7.358;2022-09-16T17:14:23;16.10;99.90
37310;DHT22;23195;47.744;7.358;2022-09-16T17:16:52;15.60;99.90
37310;DHT22;23195;47.744;7.358;2022-09-16T17:19:22;16.10;99.90
37310;DHT22;23195;47.744;7.358;2022-09-16T17:21:49;16.10;99.90
37310;DHT22;23195;47.744;7.358;2022-09-16T17:24:16;16.00;99.90
37310;DHT22;23195;47.744;7.358;2022-09-16T17:26:42;16.10;99.90
37310;DHT22;23195;47.744;7.358;2022-09-16T17:29:08;16.00;99.90
37310;DHT22;23195;47.744;7.358;2022-09-16T17:31:35;15.90;99.90
37310;DHT22;23195;47.744;7.358;2022-09-16T17:34:05;15.90;99.90
37310;DHT22;23195;47.744;7.358;2022-09-16T17:36:33;15.90;99.90
37310;DHT22;23195;47.744;7.358;2022-09-16T17:39:06;15.90;99.90
37310;DHT22;23195;47.744;7.358;2022-09-16T17:41:33;15.90;99.90
37310;DHT22;23195;47.744;7.358;2022-09-16T17:44:04;15.80;99.90
37310;DHT22;23195;47.744;7.358;2022-09-16T17:46:30;15.80;99.90
37310;DHT22;23195;47.744;7.358;2022-09-16T17:49:04;15.80;99.90
37310;DHT22;23195;47.744;7.358;2022-09-16T17:51:32;15.70;99.90
37310;DHT22;23195;47.744;7.358;2022-09-16T17:53:58;15.70;99.90
37310;DHT22;23195;47.744;7.358;2022-09-16T17:56:27;15.70;99.90
37310;DHT22;23195;47.744;7.358;2022-09-16T17:58:53;15.70;99.90
37310;DHT22;23195;47.744;7.358;2022-09-16T18:01:21;15.70;99.90
37310;DHT22;23195;47.744;7.358;2022-09-16T18:03:50;15.70;99.90
37310;DHT22;23195;47.744;7.358;2022-09-16T18:06:22;15.70;99.90
37310;DHT22;23195;47.744;7.358;2022-09-16T18:08:48;15.70;99.90
37310;DHT22;23195;47.744;7.358;2022-09-16T18:11:16;15.70;99.90
37310;DHT22;23195;47.744;7.358;2022-09-16T18:13:43;15.70;99.90
37310;DHT22;23195;47.744;7.358;2022-09-16T18:16:16;15.70;99.90
37310;DHT22;23195;47.744;7.358;2022-09-16T18:18:48;15.60;99.90
37310;DHT22;23195;47.744;7.358;2022-09-16T18:21:15;15.50;99.90
37310;DHT22;23195;47.744;7.358;2022-09-16T18:23:47;15.50;99.90
37310;DHT22;23195;47.744;7.358;2022-09-16T18:26:16;15.50;99.90
37310;DHT22;23195;47.744;7.358;2022-09-16T18:28:51;15.50;99.90
37310;DHT22;23195;47.744;7.358;2022-09-16T18:31:20;15.50;99.90
37310;DHT22;23195;47.744;7.358;2022-09-16T18:34:02;15.50;99.90
37310;DHT22;23195;47.744;7.358;2022-09-16T18:36:28;15.30;99.90
37310;DHT22;23195;47.744;7.358;2022-09-16T18:38:56;15.40;99.90
37310;DHT22;23195;47.744;7.358;2022-09-16T18:41:28;15.30;99.90
37310;DHT22;23195;47.744;7.358;2022-09-16T18:43:59;15.30;99.90
37310;DHT22;23195;47.744;7.358;2022-09-16T18:46:37;15.20;99.90
37310;DHT22;23195;47.744;7.358;2022-09-16T18:49:04;15.00;99.90
37310;DHT22;23195;47.744;7.358;2022-09-16T18:51:35;15.10;99.90
37310;DHT22;23195;47.744;7.358;2022-09-16T18:54:07;15.10;99.90
37310;DHT22;23195;47.744;7.358;2022-09-16T18:56:34;15.10;99.90
37310;DHT22;23195;47.744;7.358;2022-09-16T18:59:15;15.10;99.90
37310;DHT22;23195;47.744;7.358;2022-09-16T19:02:09;15.20;99.90
37310;DHT22;23195;47.744;7.358;2022-09-16T19:04:39;15.10;99.90
37310;DHT22;23195;47.744;7.358;2022-09-16T19:07:07;15.00;99.90
37310;DHT22;23195;47.744;7.358;2022-09-16T19:09:38;15.00;99.90